sensor_id;sensor_type;location;lat;lon;timestamp;pressure;altitude;pressure_sealevel;temperature;humidity
71107;BME280;58763;47.982;11.516;2023-11-21T00:00:19;93659.09;;;6.85;76.29
71107;BME280;58763;47.982;11.516;2023-11-21T00:02:45;93659.69;;;6.72;76.81
71107;BME280;58763;47.982;11.516;2023-11-21T00:05:12;93648.63;;;6.83;77.00
71107;BME280;58763;47.982;11.516;2023-11-21T00:07:42;93649.63;;;6.97;76.32
71107;BME280;58763;47.982;11.516;2023-11-21T00:10:09;93648.28;;;6.95;77.02
71107;BME280;58763;47.982;11.516;2023-11-21T00:12:36;93644.69;;;7.15;76.29
71107;BME280;58763;47.982;11.516;2023-11-21T00:15:03;93643.31;;;7.17;76.14
71107;BME280;58763;47.982;11.516;2023-11-21T00:17:30;93641.16;;;7.19;75.81
71107;BME280;58763;47.982;11.516;2023-11-21T00:19:56;93636.06;;;7.18;75.51
71107;BME280;58763;47.982;11.516;2023-11-21T00:22:22;93631.00;;;7.16;75.41
71107;BME280;58763;47.982;11.516;2023-11-21T00:24:48;93628.78;;;7.23;75.76
71107;BME280;58763;47.982;11.516;2023-11-21T00:27:13;93633.91;;;7.20;75.85
71107;BME280;58763;47.982;11.516;2023-11-21T00:29:40;93628.25;;;7.21;75.64
71107;BME280;58763;47.982;11.516;2023-11-21T00:32:05;93632.06;;;7.15;75.84
71107;BME280;58763;47.982;11.516;2023-11-21T00:34:32;93622.63;;;7.18;75.52
71107;BME280;58763;47.982;11.516;2023-11-21T00:36:58;93629.88;;;7.17;75.43
71107;BME280;58763;47.982;11.516;2023-11-21T00:39:23;93624.81;;;7.16;75.69
71107;BME280;58763;47.982;11.516;2023-11-21T00:41:49;93619.72;;;7.09;75.89
71107;BME280;58763;47.982;11.516;2023-11-21T00:44:15;93616.03;;;7.00;75.81
71107;BME280;58763;47.982;11.516;2023-11-21T00:46:41;93613.03;;;7.02;76.35
71107;BME280;58763;47.982;11.516;2023-11-21T00:49:07;93614.44;;;6.94;75.90
71107;BME280;58763;47.982;11.516;2023-11-21T00:51:33;93609.66;;;6.86;76.56
71107;BME280;58763;47.982;11.516;2023-11-21T00:53:58;93613.34;;;6.95;76.93
71107;BME280;58763;47.982;11.516;2023-11-21T00:56:24;93612.78;;;6.98;76.13
71107;BME280;58763;47.982;11.516;2023-11-21T00:58:50;93603.22;;;6.77;77.38
71107;BME280;58763;47.982;11.516;2023-11-21T01:01:20;93607.53;;;6.73;77.96
71107;BME280;58763;47.982;11.516;2023-11-21T01:03:48;93604.84;;;6.78;77.85
71107;BME280;58763;47.982;11.516;2023-11-21T01:06:15;93604.88;;;6.63;78.11
71107;BME280;58763;47.982;11.516;2023-11-21T01:08:40;93597.94;;;6.52;78.50
71107;BME280;58763;47.982;11.516;2023-11-21T01:11:06;93595.84;;;6.49;78.62
71107;BME280;58763;47.982;11.516;2023-11-21T01:13:34;93593.16;;;6.44;78.68
71107;BME280;58763;47.982;11.516;2023-11-21T01:16:00;93593.66;;;6.56;79.11
71107;BME280;58763;47.982;11.516;2023-11-21T01:18:26;93593.09;;;6.54;78.18
71107;BME280;58763;47.982;11.516;2023-11-21T01:20:52;93595.25;;;6.52;78.27
71107;BME280;58763;47.982;11.516;2023-11-21T01:23:19;93595.31;;;6.42;78.65
71107;BME280;58763;47.982;11.516;2023-11-21T01:25:45;93590.47;;;6.44;78.74
71107;BME280;58763;47.982;11.516;2023-11-21T01:28:10;93590.47;;;6.49;78.45
71107;BME280;58763;47.982;11.516;2023-11-21T01:30:36;93600.38;;;6.53;78.27
71107;BME280;58763;47.982;11.516;2023-11-21T01:33:01;93600.63;;;6.57;78.08
71107;BME280;58763;47.982;11.516;2023-11-21T01:35:27;93606.81;;;6.57;77.50
71107;BME280;58763;47.982;11.516;2023-11-21T01:37:52;93598.47;;;6.59;77.57
71107;BME280;58763;47.982;11.516;2023-11-21T01:40:18;93600.09;;;6.60;77.81
71107;BME280;58763;47.982;11.516;2023-11-21T01:42:44;93608.66;;;6.62;77.39
71107;BME280;58763;47.982;11.516;2023-11-21T01:45:12;93607.34;;;6.54;77.56
71107;BME280;58763;47.982;11.516;2023-11-21T01:47:38;93595.84;;;6.49;77.37
71107;BME280;58763;47.982;11.516;2023-11-21T01:50:08;93602.81;;;6.45;77.43
71107;BME280;58763;47.982;11.516;2023-11-21T01:52:35;93597.94;;;6.52;77.04
71107;BME280;58763;47.982;11.516;2023-11-21T01:55:01;93595.84;;;6.49;77.72
71107;BME280;58763;47.982;11.516;2023-11-21T01:57:26;93602.50;;;6.51;77.38
71107;BME280;58763;47.982;11.516;2023-11-21T01:59:54;93614.56;;;6.64;76.95
71107;BME280;58763;47.982;11.516;2023-11-21T02:02:20;93605.47;;;6.60;78.25
71107;BME280;58763;47.982;11.516;2023-11-21T02:04:45;93608.16;;;6.55;78.67
71107;BME280;58763;47.982;11.516;2023-11-21T02:07:11;93601.72;;;6.51;79.08
71107;BME280;58763;47.982;11.516;2023-11-21T02:09:37;93603.59;;;6.50;79.48
71107;BME280;58763;47.982;11.516;2023-11-21T02:12:04;93603.91;;;6.49;79.98
71107;BME280;58763;47.982;11.516;2023-11-21T02:14:30;93602.81;;;6.45;80.21
71107;BME280;58763;47.982;11.516;2023-11-21T02:16:57;93607.13;;;6.36;80.22
71107;BME280;58763;47.982;11.516;2023-11-21T02:19:23;93611.69;;;6.40;80.42
71107;BME280;58763;47.982;11.516;2023-11-21T02:21:51;93608.75;;;6.37;80.75
71107;BME280;58763;47.982;11.516;2023-11-21T02:24:21;93599.63;;;6.33;81.08
71107;BME280;58763;47.982;11.516;2023-11-21T02:26:48;93608.75;;;6.37;80.90
71107;BME280;58763;47.982;11.516;2023-11-21T02:29:14;93604.44;;;6.46;80.50
71107;BME280;58763;47.982;11.516;2023-11-21T02:31:43;93607.09;;;6.51;79.92
71107;BME280;58763;47.982;11.516;2023-11-21T02:34:16;93598.47;;;6.59;80.19
71107;BME280;58763;47.982;11.516;2023-11-21T02:36:46;93604.88;;;6.63;79.92
71107;BME280;58763;47.982;11.516;2023-11-21T02:39:13;93604.94;;;6.58;79.97
71107;BME280;58763;47.982;11.516;2023-11-21T02:41:38;93602.19;;;6.63;80.15
71107;BME280;58763;47.982;11.516;2023-11-21T02:44:05;93601.44;;;6.57;80.77
71107;BME280;58763;47.982;11.516;2023-11-21T02:46:33;93609.22;;;6.59;80.56
71107;BME280;58763;47.982;11.516;2023-11-21T02:49:03;93594.72;;;6.55;81.56
71107;BME280;58763;47.982;11.516;2023-11-21T02:51:30;93601.44;;;6.52;81.67
71107;BME280;58763;47.982;11.516;2023-11-21T02:53:56;93585.63;;;6.51;82.09
71107;BME280;58763;47.982;11.516;2023-11-21T02:56:27;93588.56;;;6.49;82.46
71107;BME280;58763;47.982;11.516;2023-11-21T02:58:55;93598.75;;;6.52;82.48
71107;BME280;58763;47.982;11.516;2023-11-21T03:01:21;93591.78;;;6.51;82.92
71107;BME280;58763;47.982;11.516;2023-11-21T03:03:46;93594.75;;;6.50;82.90
71107;BME280;58763;47.982;11.516;2023-11-21T03:06:13;93595.84;;;6.44;83.18
71107;BME280;58763;47.982;11.516;2023-11-21T03:08:38;93598.00;;;6.42;82.87
71107;BME280;58763;47.982;11.516;2023-11-21T03:11:04;93595.56;;;6.50;82.87
71107;BME280;58763;47.982;11.516;2023-11-21T03:13:30;93601.72;;;6.51;82.98
71107;BME280;58763;47.982;11.516;2023-11-21T03:15:55;93594.97;;;6.58;82.80
71107;BME280;58763;47.982;11.516;2023-11-21T03:18:21;93604.94;;;6.58;83.29
71107;BME280;58763;47.982;11.516;2023-11-21T03:20:48;93604.41;;;6.51;83.65
71107;BME280;58763;47.982;11.516;2023-11-21T03:23:14;93598.34;;;6.20;84.33
71107;BME280;58763;47.982;11.516;2023-11-21T03:25:40;93587.06;;;6.18;84.61
71107;BME280;58763;47.982;11.516;2023-11-21T03:28:06;93593.00;;;6.00;84.38
71107;BME280;58763;47.982;11.516;2023-11-21T03:30:33;93596.53;;;5.85;85.42
71107;BME280;58763;47.982;11.516;2023-11-21T03:32:59;93591.13;;;5.80;86.70
71107;BME280;58763;47.982;11.516;2023-11-21T03:35:25;93588.97;;;5.72;87.43
71107;BME280;58763;47.982;11.516;2023-11-21T03:37:51;93583.63;;;5.72;88.85
71107;BME280;58763;47.982;11.516;2023-11-21T03:40:17;93589.25;;;5.66;88.68
71107;BME280;58763;47.982;11.516;2023-11-21T03:42:43;93587.41;;;5.71;88.16
71107;BME280;58763;47.982;11.516;2023-11-21T03:45:09;93591.41;;;5.69;89.47
71107;BME280;58763;47.982;11.516;2023-11-21T03:47:34;93585.53;;;5.72;89.00
71107;BME280;58763;47.982;11.516;2023-11-21T03:50:01;93575.56;;;5.82;89.00
71107;BME280;58763;47.982;11.516;2023-11-21T03:52:26;93582.00;;;5.96;88.50
71107;BME280;58763;47.982;11.516;2023-11-21T03:54:53;93587.09;;;6.08;88.36
71107;BME280;58763;47.982;11.516;2023-11-21T03:57:21;93592.16;;;6.19;87.29
71107;BME280;58763;47.982;11.516;2023-11-21T03:59:47;93583.50;;;6.33;86.45
71107;BME280;58763;47.982;11.516;2023-11-21T04:02:12;93592.91;;;6.35;86.83
71107;BME280;58763;47.982;11.516;2023-11-21T04:04:38;93582.69;;;6.37;86.30
71107;BME280;58763;47.982;11.516;2023-11-21T04:07:04;93580.00;;;6.42;86.42
71107;BME280;58763;47.982;11.516;2023-11-21T04:09:30;93583.50;;;6.38;86.64
71107;BME280;58763;47.982;11.516;2023-11-21T04:11:56;93579.25;;;6.32;86.49
71107;BME280;58763;47.982;11.516;2023-11-21T04:14:22;93584.03;;;6.40;86.00
71107;BME280;58763;47.982;11.516;2023-11-21T04:16:48;93582.69;;;6.42;86.39
71107;BME280;58763;47.982;11.516;2023-11-21T04:19:14;93583.97;;;6.55;86.17
71107;BME280;58763;47.982;11.516;2023-11-21T04:21:41;93589.63;;;6.53;85.78
71107;BME280;58763;47.982;11.516;2023-11-21T04:24:07;93583.97;;;6.60;85.91
71107;BME280;58763;47.982;11.516;2023-11-21T04:26:32;93588.13;;;6.27;87.05
71107;BME280;58763;47.982;11.516;2023-11-21T04:28:58;93588.94;;;6.28;87.74
71107;BME280;58763;47.982;11.516;2023-11-21T04:31:24;93593.81;;;5.95;89.43
71107;BME280;58763;47.982;11.516;2023-11-21T04:33:49;93598.09;;;5.81;89.88
71107;BME280;58763;47.982;11.516;2023-11-21T04:36:15;93605.34;;;5.91;90.25
71107;BME280;58763;47.982;11.516;2023-11-21T04:38:40;93604.00;;;5.78;90.55
71107;BME280;58763;47.982;11.516;2023-11-21T04:41:06;93601.34;;;5.78;90.86
71107;BME280;58763;47.982;11.516;2023-11-21T04:43:32;93601.88;;;5.70;91.42
71107;BME280;58763;47.982;11.516;2023-11-21T04:45:57;93604.28;;;5.72;91.78
71107;BME280;58763;47.982;11.516;2023-11-21T04:48:23;93604.00;;;5.73;92.05
71107;BME280;58763;47.982;11.516;2023-11-21T04:50:48;93602.41;;;5.67;92.15
71107;BME280;58763;47.982;11.516;2023-11-21T04:53:14;93595.16;;;5.68;92.39
71107;BME280;58763;47.982;11.516;2023-11-21T04:55:40;93607.25;;;5.60;92.77
71107;BME280;58763;47.982;11.516;2023-11-21T04:58:07;93603.22;;;5.57;92.77
71107;BME280;58763;47.982;11.516;2023-11-21T05:00:33;93610.19;;;5.64;93.02
71107;BME280;58763;47.982;11.516;2023-11-21T05:02:59;93611.25;;;5.42;93.62
71107;BME280;58763;47.982;11.516;2023-11-21T05:05:27;93608.84;;;5.41;94.93
71107;BME280;58763;47.982;11.516;2023-11-21T05:07:52;93621.44;;;5.30;92.91
71107;BME280;58763;47.982;11.516;2023-11-21T05:10:19;93609.63;;;5.26;93.91
71107;BME280;58763;47.982;11.516;2023-11-21T05:12:45;93609.91;;;5.25;93.50
71107;BME280;58763;47.982;11.516;2023-11-21T05:15:14;93609.38;;;5.18;94.26
71107;BME280;58763;47.982;11.516;2023-11-21T05:17:41;93611.25;;;5.17;94.25
71107;BME280;58763;47.982;11.516;2023-11-21T05:20:09;93611.25;;;5.17;95.24
71107;BME280;58763;47.982;11.516;2023-11-21T05:22:35;93610.44;;;5.27;95.31
71107;BME280;58763;47.982;11.516;2023-11-21T05:25:02;93618.22;;;5.33;95.45
71107;BME280;58763;47.982;11.516;2023-11-21T05:27:29;93613.13;;;5.37;95.01
71107;BME280;58763;47.982;11.516;2023-11-21T05:29:56;93615.81;;;5.42;95.17
71107;BME280;58763;47.982;11.516;2023-11-21T05:32:24;93615.81;;;5.57;94.57
71107;BME280;58763;47.982;11.516;2023-11-21T05:34:49;93613.16;;;5.57;94.09
71107;BME280;58763;47.982;11.516;2023-11-21T05:37:15;93616.34;;;5.59;93.37
71107;BME280;58763;47.982;11.516;2023-11-21T05:39:40;93619.59;;;5.76;93.43
71107;BME280;58763;47.982;11.516;2023-11-21T05:42:06;93611.81;;;5.90;92.94
71107;BME280;58763;47.982;11.516;2023-11-21T05:44:32;93615.81;;;6.02;92.40
71107;BME280;58763;47.982;11.516;2023-11-21T05:46:57;93617.94;;;6.10;91.44
71107;BME280;58763;47.982;11.516;2023-11-21T05:49:24;93617.94;;;6.15;91.10
71107;BME280;58763;47.982;11.516;2023-11-21T05:51:53;93611.50;;;6.11;90.92
71107;BME280;58763;47.982;11.516;2023-11-21T05:54:19;93619.53;;;6.11;91.59
71107;BME280;58763;47.982;11.516;2023-11-21T05:56:45;93608.31;;;6.04;91.53
71107;BME280;58763;47.982;11.516;2023-11-21T05:59:10;93616.38;;;6.04;91.77
71107;BME280;58763;47.982;11.516;2023-11-21T06:01:36;93624.66;;;6.08;91.60
71107;BME280;58763;47.982;11.516;2023-11-21T06:04:04;93624.38;;;6.09;91.06
71107;BME280;58763;47.982;11.516;2023-11-21T06:06:30;93621.97;;;6.08;91.45
71107;BME280;58763;47.982;11.516;2023-11-21T06:08:57;93613.38;;;6.11;91.33
71107;BME280;58763;47.982;11.516;2023-11-21T06:11:22;93617.94;;;6.10;91.48
71107;BME280;58763;47.982;11.516;2023-11-21T06:13:50;93624.66;;;6.13;91.29
71107;BME280;58763;47.982;11.516;2023-11-21T06:16:15;93633.53;;;6.03;91.66
71107;BME280;58763;47.982;11.516;2023-11-21T06:18:45;93639.97;;;6.07;90.94
71107;BME280;58763;47.982;11.516;2023-11-21T06:21:11;93643.19;;;5.69;92.81
71107;BME280;58763;47.982;11.516;2023-11-21T06:23:36;93642.88;;;5.55;93.94
71107;BME280;58763;47.982;11.516;2023-11-21T06:26:02;93637.81;;;5.69;93.87
71107;BME280;58763;47.982;11.516;2023-11-21T06:28:30;93640.22;;;5.71;93.57
71107;BME280;58763;47.982;11.516;2023-11-21T06:30:56;93651.78;;;5.86;93.09
71107;BME280;58763;47.982;11.516;2023-11-21T06:33:24;93650.19;;;5.90;93.03
71107;BME280;58763;47.982;11.516;2023-11-21T06:35:51;93660.09;;;6.00;92.41
71107;BME280;58763;47.982;11.516;2023-11-21T06:38:16;93649.63;;;5.93;92.38
71107;BME280;58763;47.982;11.516;2023-11-21T06:40:43;93650.16;;;6.10;91.69
71107;BME280;58763;47.982;11.516;2023-11-21T06:43:09;93647.47;;;6.05;91.23
71107;BME280;58763;47.982;11.516;2023-11-21T06:45:35;93655.53;;;6.05;91.13
71107;BME280;58763;47.982;11.516;2023-11-21T06:48:01;93652.84;;;6.15;91.35
71107;BME280;58763;47.982;11.516;2023-11-21T06:50:26;93655.53;;;6.20;91.13
71107;BME280;58763;47.982;11.516;2023-11-21T06:52:52;93658.44;;;6.34;90.74
71107;BME280;58763;47.982;11.516;2023-11-21T06:55:17;93668.59;;;6.42;90.31
71107;BME280;58763;47.982;11.516;2023-11-21T06:57:43;93671.59;;;6.41;89.97
71107;BME280;58763;47.982;11.516;2023-11-21T07:00:11;93669.97;;;6.40;90.32
71107;BME280;58763;47.982;11.516;2023-11-21T07:02:37;93675.31;;;6.50;89.39
71107;BME280;58763;47.982;11.516;2023-11-21T07:05:03;93677.19;;;6.49;89.56
71107;BME280;58763;47.982;11.516;2023-11-21T07:07:29;93678.00;;;6.45;89.48
71107;BME280;58763;47.982;11.516;2023-11-21T07:09:55;93673.16;;;6.47;89.74
71107;BME280;58763;47.982;11.516;2023-11-21T07:12:20;93686.34;;;6.53;89.10
71107;BME280;58763;47.982;11.516;2023-11-21T07:14:49;93683.66;;;6.53;89.03
71107;BME280;58763;47.982;11.516;2023-11-21T07:17:14;93683.38;;;6.55;88.96
71107;BME280;58763;47.982;11.516;2023-11-21T07:19:42;93678.00;;;6.55;89.32
71107;BME280;58763;47.982;11.516;2023-11-21T07:22:08;93680.44;;;6.46;89.73
71107;BME280;58763;47.982;11.516;2023-11-21T07:24:34;93684.72;;;6.42;90.45
71107;BME280;58763;47.982;11.516;2023-11-21T07:27:00;93680.75;;;6.30;91.50
71107;BME280;58763;47.982;11.516;2023-11-21T07:29:26;93686.34;;;6.33;91.53
71107;BME280;58763;47.982;11.516;2023-11-21T07:31:54;93687.69;;;6.36;91.51
71107;BME280;58763;47.982;11.516;2023-11-21T07:34:21;93692.53;;;6.39;91.42
71107;BME280;58763;47.982;11.516;2023-11-21T07:36:47;93685.78;;;6.51;91.10
71107;BME280;58763;47.982;11.516;2023-11-21T07:39:13;93696.00;;;6.49;90.48
71107;BME280;58763;47.982;11.516;2023-11-21T07:41:42;93705.13;;;6.48;90.91
71107;BME280;58763;47.982;11.516;2023-11-21T07:44:15;93690.91;;;6.53;90.81
71107;BME280;58763;47.982;11.516;2023-11-21T07:46:41;93696.22;;;6.63;90.95
71107;BME280;58763;47.982;11.516;2023-11-21T07:49:07;93696.22;;;6.63;90.54
71107;BME280;58763;47.982;11.516;2023-11-21T07:51:32;93691.94;;;6.57;90.86
71107;BME280;58763;47.982;11.516;2023-11-21T07:53:59;93693.53;;;6.68;90.83
71107;BME280;58763;47.982;11.516;2023-11-21T07:56:24;93696.22;;;6.68;90.57
71107;BME280;58763;47.982;11.516;2023-11-21T07:58:49;93696.47;;;6.71;90.67
71107;BME280;58763;47.982;11.516;2023-11-21T08:01:15;93695.69;;;6.66;91.19
71107;BME280;58763;47.982;11.516;2023-11-21T08:03:41;93691.34;;;6.75;90.37
71107;BME280;58763;47.982;11.516;2023-11-21T08:06:07;93692.75;;;6.67;90.38
71107;BME280;58763;47.982;11.516;2023-11-21T08:08:33;93691.41;;;6.65;90.64
71107;BME280;58763;47.982;11.516;2023-11-21T08:10:58;93695.13;;;6.79;90.02
71107;BME280;58763;47.982;11.516;2023-11-21T08:13:29;93693.00;;;6.71;89.24
71107;BME280;58763;47.982;11.516;2023-11-21T08:15:58;93690.31;;;6.61;89.04
71107;BME280;58763;47.982;11.516;2023-11-21T08:18:30;93690.59;;;6.59;88.90
71107;BME280;58763;47.982;11.516;2023-11-21T08:20:56;93702.09;;;6.75;89.10
71107;BME280;58763;47.982;11.516;2023-11-21T08:23:22;93701.59;;;6.63;89.31
71107;BME280;58763;47.982;11.516;2023-11-21T08:25:53;93705.91;;;6.59;89.79
71107;BME280;58763;47.982;11.516;2023-11-21T08:28:19;93703.78;;;6.51;89.32
71107;BME280;58763;47.982;11.516;2023-11-21T08:30:44;93704.63;;;6.46;89.54
71107;BME280;58763;47.982;11.516;2023-11-21T08:33:10;93705.44;;;6.42;90.09
71107;BME280;58763;47.982;11.516;2023-11-21T08:35:37;93700.84;;;6.37;90.72
71107;BME280;58763;47.982;11.516;2023-11-21T08:38:04;93703.03;;;6.30;91.56
71107;BME280;58763;47.982;11.516;2023-11-21T08:40:30;93709.47;;;6.14;92.62
71107;BME280;58763;47.982;11.516;2023-11-21T08:42:56;93709.47;;;6.14;92.16
71107;BME280;58763;47.982;11.516;2023-11-21T08:45:24;93709.72;;;6.02;92.98
71107;BME280;58763;47.982;11.516;2023-11-21T08:47:50;93702.25;;;6.04;93.94
71107;BME280;58763;47.982;11.516;2023-11-21T08:50:16;93698.75;;;5.94;93.54
71107;BME280;58763;47.982;11.516;2023-11-21T08:52:43;93701.97;;;5.86;93.04
71107;BME280;58763;47.982;11.516;2023-11-21T08:55:09;93703.84;;;5.90;93.26
71107;BME280;58763;47.982;11.516;2023-11-21T08:57:38;93708.66;;;5.88;95.31
71107;BME280;58763;47.982;11.516;2023-11-21T09:00:09;93701.69;;;5.87;94.82
71107;BME280;58763;47.982;11.516;2023-11-21T09:02:38;93710.03;;;5.86;94.50
71107;BME280;58763;47.982;11.516;2023-11-21T09:05:12;93713.25;;;5.88;92.99
71107;BME280;58763;47.982;11.516;2023-11-21T09:07:40;93710.28;;;5.84;93.45
71107;BME280;58763;47.982;11.516;2023-11-21T09:10:07;93715.13;;;5.97;92.89
71107;BME280;58763;47.982;11.516;2023-11-21T09:12:33;93721.56;;;5.96;92.65
71107;BME280;58763;47.982;11.516;2023-11-21T09:15:04;93726.38;;;5.94;92.57
71107;BME280;58763;47.982;11.516;2023-11-21T09:17:32;93727.97;;;5.95;92.31
71107;BME280;58763;47.982;11.516;2023-11-21T09:19:57;93735.50;;;5.93;93.02
71107;BME280;58763;47.982;11.516;2023-11-21T09:22:23;93734.44;;;6.09;92.33
71107;BME280;58763;47.982;11.516;2023-11-21T09:24:53;93735.50;;;6.08;92.41
71107;BME280;58763;47.982;11.516;2023-11-21T09:27:18;93749.47;;;6.20;91.95
71107;BME280;58763;47.982;11.516;2023-11-21T09:29:45;93745.69;;;6.11;91.59
71107;BME280;58763;47.982;11.516;2023-11-21T09:32:11;93749.47;;;6.10;91.19
71107;BME280;58763;47.982;11.516;2023-11-21T09:34:40;93752.16;;;6.15;90.34
71107;BME280;58763;47.982;11.516;2023-11-21T09:37:07;93751.34;;;6.30;90.71
71107;BME280;58763;47.982;11.516;2023-11-21T09:39:34;93751.06;;;6.32;89.56
71107;BME280;58763;47.982;11.516;2023-11-21T09:42:22;93752.91;;;6.51;90.79
71107;BME280;58763;47.982;11.516;2023-11-21T09:45:05;93747.31;;;6.48;89.66
71107;BME280;58763;47.982;11.516;2023-11-21T09:47:35;93751.56;;;6.59;89.90
71107;BME280;58763;47.982;11.516;2023-11-21T09:50:02;93742.44;;;6.60;88.72
71107;BME280;58763;47.982;11.516;2023-11-21T09:52:28;93747.25;;;6.73;89.21
71107;BME280;58763;47.982;11.516;2023-11-21T09:54:55;93747.25;;;6.63;89.04
71107;BME280;58763;47.982;11.516;2023-11-21T09:57:26;93738.13;;;6.79;88.70
71107;BME280;58763;47.982;11.516;2023-11-21T09:59:54;93743.75;;;6.72;89.41
71107;BME280;58763;47.982;11.516;2023-11-21T10:02:27;93740.00;;;6.83;89.85
71107;BME280;58763;47.982;11.516;2023-11-21T10:04:55;93743.75;;;6.72;89.79
71107;BME280;58763;47.982;11.516;2023-11-21T10:07:22;93738.06;;;6.89;89.53
71107;BME280;58763;47.982;11.516;2023-11-21T10:09:48;93739.91;;;7.04;88.68
71107;BME280;58763;47.982;11.516;2023-11-21T10:12:16;93738.03;;;6.99;88.66
71107;BME280;58763;47.982;11.516;2023-11-21T10:14:42;93732.97;;;6.92;87.90
71107;BME280;58763;47.982;11.516;2023-11-21T10:17:10;93735.97;;;6.81;88.70
71107;BME280;58763;47.982;11.516;2023-11-21T10:19:39;93734.34;;;6.70;90.18
71107;BME280;58763;47.982;11.516;2023-11-21T10:22:05;93741.88;;;6.63;90.32
71107;BME280;58763;47.982;11.516;2023-11-21T10:24:33;93736.75;;;6.81;89.42
71107;BME280;58763;47.982;11.516;2023-11-21T10:26:58;93737.28;;;6.83;90.03
71107;BME280;58763;47.982;11.516;2023-11-21T10:29:30;93745.06;;;6.95;89.63
71107;BME280;58763;47.982;11.516;2023-11-21T10:31:56;93731.59;;;7.00;89.83
71107;BME280;58763;47.982;11.516;2023-11-21T10:34:24;93732.59;;;7.14;88.95
71107;BME280;58763;47.982;11.516;2023-11-21T10:36:50;93731.81;;;7.14;89.05
71107;BME280;58763;47.982;11.516;2023-11-21T10:39:21;93736.69;;;7.07;89.19
71107;BME280;58763;47.982;11.516;2023-11-21T10:41:49;93732.59;;;7.19;88.89
71107;BME280;58763;47.982;11.516;2023-11-21T10:44:17;93747.13;;;7.18;88.68
71107;BME280;58763;47.982;11.516;2023-11-21T10:46:49;93739.09;;;7.08;86.98
71107;BME280;58763;47.982;11.516;2023-11-21T10:49:20;93736.91;;;7.15;87.21
71107;BME280;58763;47.982;11.516;2023-11-21T10:51:46;93740.09;;;7.22;88.69
71107;BME280;58763;47.982;11.516;2023-11-21T10:54:20;93735.91;;;6.96;88.10
71107;BME280;58763;47.982;11.516;2023-11-21T10:56:49;93736.72;;;6.91;88.27
71107;BME280;58763;47.982;11.516;2023-11-21T10:59:17;93732.19;;;6.82;88.53
71107;BME280;58763;47.982;11.516;2023-11-21T11:01:45;93739.16;;;6.88;89.17
71107;BME280;58763;47.982;11.516;2023-11-21T11:04:14;93744.28;;;6.79;89.03
71107;BME280;58763;47.982;11.516;2023-11-21T11:06:50;93735.69;;;6.77;88.85
71107;BME280;58763;47.982;11.516;2023-11-21T11:09:17;93732.97;;;6.87;88.58
71107;BME280;58763;47.982;11.516;2023-11-21T11:11:43;93736.09;;;7.15;88.59
71107;BME280;58763;47.982;11.516;2023-11-21T11:14:12;93733.97;;;7.12;88.05
71107;BME280;58763;47.982;11.516;2023-11-21T11:16:40;93736.56;;;7.32;88.31
71107;BME280;58763;47.982;11.516;2023-11-21T11:19:09;93725.50;;;7.38;87.46
71107;BME280;58763;47.982;11.516;2023-11-21T11:24:59;93733.06;;;7.31;86.68
71107;BME280;58763;47.982;11.516;2023-11-21T11:27:40;93735.19;;;7.44;87.24
71107;BME280;58763;47.982;11.516;2023-11-21T11:33:38;93728.56;;;7.65;85.57
71107;BME280;58763;47.982;11.516;2023-11-21T11:36:29;93728.50;;;7.81;85.18
71107;BME280;58763;47.982;11.516;2023-11-21T11:38:58;93728.19;;;7.87;84.64
71107;BME280;58763;47.982;11.516;2023-11-21T11:41:31;93723.41;;;7.79;83.90
71107;BME280;58763;47.982;11.516;2023-11-21T11:44:03;93722.31;;;7.80;84.13
71107;BME280;58763;47.982;11.516;2023-11-21T11:46:43;93729.88;;;7.73;84.87
71107;BME280;58763;47.982;11.516;2023-11-21T11:49:54;93721.47;;;7.85;84.73
71107;BME280;58763;47.982;11.516;2023-11-21T11:52:47;93721.41;;;7.95;85.15
71107;BME280;58763;47.982;11.516;2023-11-21T11:55:16;93721.06;;;8.06;85.04
71107;BME280;58763;47.982;11.516;2023-11-21T11:57:48;93725.28;;;8.12;85.51
71107;BME280;58763;47.982;11.516;2023-11-21T12:00:21;93728.81;;;8.13;85.67
71107;BME280;58763;47.982;11.516;2023-11-21T12:03:00;93721.72;;;8.27;85.88
71107;BME280;58763;47.982;11.516;2023-11-21T12:05:32;93711.72;;;8.32;86.00
71107;BME280;58763;47.982;11.516;2023-11-21T12:08:03;93719.75;;;8.38;86.30
71107;BME280;58763;47.982;11.516;2023-11-21T12:10:31;93717.19;;;8.51;85.96
71107;BME280;58763;47.982;11.516;2023-11-21T12:15:26;93718.41;;;8.64;85.24
71107;BME280;58763;47.982;11.516;2023-11-21T12:17:54;93720.25;;;8.68;85.31
71107;BME280;58763;47.982;11.516;2023-11-21T12:20:22;93727.22;;;8.74;84.40
71107;BME280;58763;47.982;11.516;2023-11-21T12:22:52;93728.81;;;8.75;82.78
71107;BME280;58763;47.982;11.516;2023-11-21T12:25:20;93723.53;;;8.65;82.46
71107;BME280;58763;47.982;11.516;2023-11-21T12:27:48;93724.34;;;8.66;81.62
71107;BME280;58763;47.982;11.516;2023-11-21T12:30:21;93719.25;;;8.59;80.91
71107;BME280;58763;47.982;11.516;2023-11-21T12:32:54;93727.13;;;8.56;80.88
71107;BME280;58763;47.982;11.516;2023-11-21T12:35:31;93727.66;;;8.58;81.31
71107;BME280;58763;47.982;11.516;2023-11-21T12:38:00;93728.47;;;8.58;81.80
71107;BME280;58763;47.982;11.516;2023-11-21T12:40:28;93735.16;;;8.61;82.10
71107;BME280;58763;47.982;11.516;2023-11-21T12:42:56;93737.88;;;8.61;82.39
71107;BME280;58763;47.982;11.516;2023-11-21T12:45:26;93727.88;;;8.61;82.10
71107;BME280;58763;47.982;11.516;2023-11-21T12:50:24;93731.50;;;8.52;81.38
71107;BME280;58763;47.982;11.516;2023-11-21T12:52:58;93731.16;;;8.58;82.08
71107;BME280;58763;47.982;11.516;2023-11-21T12:55:24;93732.84;;;8.49;82.22
71107;BME280;58763;47.982;11.516;2023-11-21T12:57:53;93735.28;;;8.46;82.38
71107;BME280;58763;47.982;11.516;2023-11-21T13:00:35;93731.75;;;8.50;82.85
71107;BME280;58763;47.982;11.516;2023-11-21T13:03:06;93730.19;;;8.44;82.99
71107;BME280;58763;47.982;11.516;2023-11-21T13:05:35;93735.69;;;8.29;82.96
71107;BME280;58763;47.982;11.516;2023-11-21T13:08:05;93728.63;;;8.38;82.67
71107;BME280;58763;47.982;11.516;2023-11-21T13:10:34;93730.31;;;8.29;82.72
71107;BME280;58763;47.982;11.516;2023-11-21T13:13:11;93731.44;;;8.23;82.63